Etusivu
METAR-TAF:

METAR-TAF

Lentoasemat :

Port Hawkesbury, Nova Scotia, Kanada

Leveyspiiri: 45-40N, Pituuspiiri: 061-23W, korkeus merenpinnasta: 114 m

Tämänhetkinen sää

Tämä raportti tehtiin 54 minuuttia sitten, kello 04.00 UTC
Tuuli 7 kn pohjoisen/luoteesta puuskistuen 15 kn:hen, vaihdellen lännen/luoteen ja pohjoisen/koillisen välillä
Lämpötila 1°C
Kosteus 93%
Ilmanpaine 1009 hPa
Näkyvyys: 14.5 km
Muutamia pilviä 1800 ft:n korkeudessa

METAR: CYPD 220400Z AUTO 34007G15KT 300V020 9SM FEW018 01/M00 A2980 RMK SLP096

Aika: 00:54 (04:54 UTC)


TAF: puuttuu

Säähavainnot ja -ennusteet yli 4000 lentoasemalta (METAR- ja TAF-raportit).

Käytössä olevat sääasemat on merkitty karttaan keltaisilla ja punaisilla pisteillä.

Aseta hiiri pisteen päälle nähdäksesi sääaseman nimen.

Klikkaa sitten nähdäksesi säähavainnot ja -ennusteet.

Kartan vaihtaminen: klikkaa mustalla rastilla varustettuja vihreitä pisteitä, niin voit zoomata sisään; viivalla varustettua vihreää pistettä, niin voit zoomata ulos tai vihreitä nuolia, niin pääset viereisille kartoille.


METAR-TAF: